Time;durP1;ratioP1;P1;durP2;ratioP2;P2;SDS_P1;SDS_P2;PMS_P1;PMS_P2;Temp;Humidity;BMP_temperature;BMP_pressure;BME280_temperature;BME280_humidity;BME280_pressure;Samples;Min_cycle;Max_cycle;Signal;HPM_P1;HPM_P2
2022/06/19 00:00:37;;;;;;;15.57;2.35;;;39.70;15.20;;;;;;5022336;28;20391;-61
2022/06/19 00:03:07;;;;;;;14.85;2.90;;;39.50;14.80;;;;;;5039951;28;20025;-61
2022/06/19 00:05:34;;;;;;;25.25;3.08;;;39.50;14.70;;;;;;5037594;28;20037;-61
2022/06/19 00:08:00;;;;;;;20.70;3.58;;;39.50;15.60;;;;;;5015964;28;20502;-59
2022/06/19 00:10:27;;;;;;;21.60;2.70;;;39.40;14.80;;;;;;5012157;28;20038;-60
2022/06/19 00:12:53;;;;;;;21.05;3.65;;;39.30;14.40;;;;;;5031799;28;20467;-60
2022/06/19 00:15:20;;;;;;;34.33;4.80;;;39.30;15.00;;;;;;5015254;28;20391;-60
2022/06/19 00:17:46;;;;;;;52.17;5.10;;;39.20;14.10;;;;;;5015144;28;20036;-61
2022/06/19 00:20:13;;;;;;;63.22;5.05;;;38.90;14.60;;;;;;5036791;28;20483;-59
2022/06/19 00:22:40;;;;;;;68.75;6.57;;;38.80;15.10;;;;;;5032072;28;20032;-61
2022/06/19 00:25:08;;;;;;;89.90;8.13;;;38.50;15.70;;;;;;5014692;28;20040;-59
2022/06/19 00:27:41;;;;;;;72.15;6.88;;;38.30;15.80;;;;;;5032715;28;20022;-58
2022/06/19 00:30:10;;;;;;;88.97;7.45;;;38.20;16.00;;;;;;5032134;28;22044;-59
2022/06/19 00:32:37;;;;;;;82.18;8.80;;;38.30;16.40;;;;;;5016242;28;20052;-61
2022/06/19 00:35:04;;;;;;;131.95;12.40;;;38.10;15.90;;;;;;5015371;28;20060;-60
2022/06/19 00:37:31;;;;;;;156.10;16.35;;;37.70;15.70;;;;;;5032325;28;20036;-60
2022/06/19 00:39:58;;;;;;;172.43;15.60;;;37.40;16.00;;;;;;5015980;28;20040;-60
2022/06/19 00:42:24;;;;;;;130.75;14.65;;;37.40;15.50;;;;;;5016655;28;20032;-60
2022/06/19 00:44:54;;;;;;;157.18;17.17;;;37.30;15.50;;;;;;5015466;28;20048;-61
2022/06/19 00:47:26;;;;;;;138.50;15.50;;;37.30;15.60;;;;;;5015939;28;20036;-61
2022/06/19 00:49:55;;;;;;;212.07;21.23;;;37.20;15.30;;;;;;5015404;28;20151;-61
2022/06/19 00:52:30;;;;;;;152.68;17.05;;;37.00;15.30;;;;;;5013879;28;20036;-61
2022/06/19 00:55:30;;;;;;;135.50;15.20;;;36.80;15.40;;;;;;5025732;28;20525;-60
2022/06/19 00:58:07;;;;;;;118.55;12.85;;;36.60;15.10;;;;;;5013267;28;20042;-60
2022/06/19 01:00:36;;;;;;;132.02;15.02;;;36.50;15.20;;;;;;5030360;28;20037;-62
2022/06/19 01:03:11;;;;;;;132.85;15.65;;;36.40;15.40;;;;;;5030672;28;20067;-61
2022/06/19 01:05:41;;;;;;;109.90;12.95;;;36.10;15.30;;;;;;5017171;28;20058;-62
2022/06/19 01:08:07;;;;;;;102.75;12.40;;;36.00;15.60;;;;;;5016112;28;20048;-62
2022/06/19 01:10:40;;;;;;;96.13;12.07;;;35.90;15.90;;;;;;5031392;28;20142;-62
2022/06/19 01:13:07;;;;;;;99.82;12.38;;;35.80;15.80;;;;;;5015207;28;20060;-59
2022/06/19 01:15:34;;;;;;;111.63;13.25;;;35.60;15.50;;;;;;5030753;28;20065;-61
2022/06/19 01:18:05;;;;;;;106.15;13.30;;;35.50;15.70;;;;;;5028883;28;20074;-61
2022/06/19 01:20:33;;;;;;;112.13;13.60;;;35.20;15.80;;;;;;5014275;28;20048;-60
2022/06/19 01:23:11;;;;;;;87.95;11.23;;;35.10;16.10;;;;;;5014848;28;20708;-60
2022/06/19 01:25:40;;;;;;;77.05;10.18;;;35.00;15.70;;;;;;5015244;28;20068;-62
2022/06/19 01:31:03;;;;;;;68.57;7.53;;;34.90;16.00;;;;;;5014327;28;20063;-60
2022/06/19 01:33:45;;;;;;;73.30;8.70;;;34.70;15.10;;;;;;5033538;28;20058;-61
2022/06/19 01:36:13;;;;;;;86.13;9.40;;;34.60;15.10;;;;;;5013899;28;20081;-59
2022/06/19 01:38:42;;;;;;;56.13;7.28;;;34.60;15.00;;;;;;5015437;28;20069;-61
2022/06/19 01:41:27;;;;;;;73.95;9.55;;;34.40;15.30;;;;;;5017739;28;20128;-58
2022/06/19 01:43:54;;;;;;;66.30;8.18;;;34.40;15.20;;;;;;5028569;28;20119;-60
2022/06/19 01:46:22;;;;;;;69.72;9.00;;;34.30;14.80;;;;;;5030629;28;20500;-60
2022/06/19 01:48:48;;;;;;;59.55;8.52;;;34.30;14.90;;;;;;5030809;28;20064;-60
2022/06/19 01:51:15;;;;;;;50.83;6.70;;;34.10;14.60;;;;;;5017026;28;20107;-60
2022/06/19 01:53:48;;;;;;;42.28;5.60;;;34.00;14.50;;;;;;5018813;28;20098;-59
2022/06/19 01:56:15;;;;;;;57.85;6.82;;;33.80;14.80;;;;;;5024902;28;20075;-61
2022/06/19 01:58:48;;;;;;;44.38;5.80;;;33.70;15.20;;;;;;5017030;28;21438;-61
2022/06/19 02:01:14;;;;;;;58.53;6.22;;;33.60;15.70;;;;;;5031208;28;20069;-59
2022/06/19 02:03:49;;;;;;;44.33;5.03;;;33.50;16.10;;;;;;5036236;28;20055;-60
2022/06/19 02:06:20;;;;;;;42.30;5.40;;;33.20;15.80;;;;;;5040249;28;20071;-60
2022/06/19 02:08:48;;;;;;;48.63;5.25;;;33.00;15.80;;;;;;5014865;28;20167;-60
2022/06/19 02:11:16;;;;;;;50.97;5.00;;;32.90;15.90;;;;;;5015157;28;20071;-61
2022/06/19 02:13:44;;;;;;;43.85;5.07;;;32.60;15.90;;;;;;5013598;28;20594;-60
2022/06/19 02:16:17;;;;;;;40.67;4.38;;;32.50;15.90;;;;;;5013126;28;20511;-60
2022/06/19 02:18:46;;;;;;;55.33;5.05;;;32.20;16.00;;;;;;5026610;28;20115;-61
2022/06/19 02:21:34;;;;;;;61.25;5.60;;;32.10;16.30;;;;;;5030366;28;20161;-56
2022/06/19 02:24:00;;;;;;;60.78;5.68;;;31.90;16.20;;;;;;5020204;28;20402;-60
2022/06/19 02:26:27;;;;;;;53.42;5.65;;;31.80;16.20;;;;;;5035690;28;20077;-59
2022/06/19 02:28:54;;;;;;;55.95;5.00;;;31.60;16.30;;;;;;5036050;28;20074;-60
2022/06/19 02:31:21;;;;;;;42.78;4.95;;;31.60;16.30;;;;;;5021461;28;20083;-60
2022/06/19 02:33:54;;;;;;;50.70;5.35;;;31.40;16.20;;;;;;5022043;28;20397;-60
2022/06/19 02:36:34;;;;;;;69.88;6.40;;;31.40;16.40;;;;;;5028776;28;20092;-59
2022/06/19 02:39:31;;;;;;;105.45;8.27;;;31.20;16.50;;;;;;5022421;28;20075;-62
2022/06/19 02:42:28;;;;;;;68.53;6.87;;;31.00;16.50;;;;;;5019909;28;20064;-62
2022/06/19 02:45:01;;;;;;;89.50;8.50;;;30.90;16.80;;;;;;5018918;28;20332;-60
2022/06/19 02:47:31;;;;;;;73.82;6.45;;;30.80;16.80;;;;;;5030756;28;20433;-59
2022/06/19 02:49:57;;;;;;;59.65;4.82;;;30.70;16.70;;;;;;5030736;28;20140;-59
2022/06/19 02:52:24;;;;;;;46.58;5.60;;;30.50;15.90;;;;;;5012454;28;20126;-63
2022/06/19 02:54:51;;;;;;;44.10;4.30;;;30.30;15.30;;;;;;5029925;28;20098;-61
2022/06/19 02:57:17;;;;;;;43.67;4.35;;;30.30;15.10;;;;;;5032316;28;20096;-61
2022/06/19 02:59:44;;;;;;;45.17;4.28;;;30.20;15.40;;;;;;5009707;28;20072;-62
2022/06/19 03:02:13;;;;;;;39.45;4.35;;;30.10;15.40;;;;;;5023455;28;20610;-61
2022/06/19 03:04:46;;;;;;;25.88;3.53;;;30.10;15.50;;;;;;5029109;28;20074;-62
2022/06/19 03:07:12;;;;;;;30.90;3.80;;;30.00;15.30;;;;;;5031750;28;20088;-61
2022/06/19 03:09:38;;;;;;;39.72;4.03;;;30.00;15.40;;;;;;5012117;28;20103;-60
2022/06/19 03:12:07;;;;;;;36.30;3.42;;;30.00;15.50;;;;;;5027277;28;20100;-61
2022/06/19 03:14:33;;;;;;;25.02;3.60;;;30.00;15.30;;;;;;5009232;28;20542;-59
2022/06/19 03:16:59;;;;;;;25.33;3.75;;;29.90;15.60;;;;;;5028178;28;20617;-61
2022/06/19 03:19:26;;;;;;;41.45;4.60;;;29.90;15.60;;;;;;5013595;28;20137;-62
2022/06/19 03:21:52;;;;;;;26.83;4.13;;;29.80;15.20;;;;;;5014494;28;20072;-61
2022/06/19 03:24:19;;;;;;;27.98;4.95;;;29.70;15.40;;;;;;5013482;28;20593;-61
2022/06/19 03:26:45;;;;;;;24.63;4.80;;;29.60;15.60;;;;;;5028752;28;20076;-60
2022/06/19 03:29:12;;;;;;;42.78;5.43;;;29.60;15.30;;;;;;5035043;28;20105;-62
2022/06/19 03:31:38;;;;;;;70.25;10.77;;;29.60;15.10;;;;;;5035254;28;20081;-62
2022/06/19 03:34:05;;;;;;;38.58;7.05;;;29.60;14.80;;;;;;5027915;28;20522;-62
2022/06/19 03:36:32;;;;;;;47.28;19.88;;;29.60;14.80;;;;;;5029523;28;20096;-65
2022/06/19 03:38:59;;;;;;;50.72;9.82;;;29.70;14.80;;;;;;5036304;28;20070;-63
2022/06/19 03:41:25;;;;;;;53.70;7.72;;;29.70;14.50;;;;;;5011561;28;20162;-64
2022/06/19 03:43:51;;;;;;;55.47;8.10;;;29.80;14.80;;;;;;5031880;28;20063;-63
2022/06/19 03:46:19;;;;;;;30.02;6.97;;;29.80;15.20;;;;;;5011587;28;20496;-63
2022/06/19 03:48:49;;;;;;;20.20;4.95;;;29.70;16.10;;;;;;5012046;28;20443;-63
2022/06/19 03:51:16;;;;;;;38.17;5.80;;;29.40;16.20;;;;;;4999260;28;20077;-64
2022/06/19 03:53:45;;;;;;;18.60;4.18;;;29.20;16.30;;;;;;5011846;28;20523;-62
2022/06/19 03:56:17;;;;;;;13.27;2.58;;;29.10;16.00;;;;;;5027001;28;20109;-63
2022/06/19 03:58:46;;;;;;;24.73;14.13;;;29.00;15.40;;;;;;5015754;28;20120;-62
2022/06/19 04:01:19;;;;;;;16.75;6.78;;;28.90;15.60;;;;;;5023557;28;20114;-62
2022/06/19 04:03:46;;;;;;;27.58;13.93;;;28.90;15.40;;;;;;5012210;28;20520;-60
2022/06/19 04:06:15;;;;;;;45.63;21.35;;;28.80;15.40;;;;;;5009805;28;20077;-63
2022/06/19 04:08:45;;;;;;;25.58;10.32;;;28.70;15.10;;;;;;5010775;28;20780;-63
2022/06/19 04:11:17;;;;;;;31.92;11.18;;;28.70;15.00;;;;;;5030694;28;20073;-63
2022/06/19 04:13:44;;;;;;;40.53;16.55;;;28.60;14.50;;;;;;5016295;28;20116;-63
2022/06/19 04:16:24;;;;;;;27.15;10.10;;;28.60;13.90;;;;;;5032761;28;20120;-63
2022/06/19 04:18:52;;;;;;;23.27;6.95;;;28.60;13.50;;;;;;5033564;28;20113;-64
2022/06/19 04:21:22;;;;;;;21.95;4.13;;;28.60;13.40;;;;;;5014267;28;20096;-66
2022/06/19 04:23:53;;;;;;;12.45;5.55;;;28.60;13.40;;;;;;5014292;28;20070;-66
2022/06/19 04:26:21;;;;;;;8.85;2.22;;;28.60;13.20;;;;;;5019245;28;20080;-66
2022/06/19 04:28:48;;;;;;;16.73;7.75;;;28.60;13.10;;;;;;5015810;28;20099;-64
2022/06/19 04:31:15;;;;;;;11.00;2.20;;;28.50;13.50;;;;;;5015904;28;20073;-67
2022/06/19 04:33:41;;;;;;;17.52;2.58;;;28.50;14.00;;;;;;5031169;28;20117;-65
2022/06/19 04:36:14;;;;;;;13.13;1.83;;;28.40;14.30;;;;;;5030736;28;20096;-65
2022/06/19 04:38:43;;;;;;;11.30;1.70;;;28.40;14.30;;;;;;5041233;28;20112;-66
2022/06/19 04:41:22;;;;;;;8.45;2.38;;;28.30;14.60;;;;;;5034554;28;20065;-66
2022/06/19 04:43:50;;;;;;;11.27;1.63;;;28.20;14.60;;;;;;5034804;28;20211;-66
2022/06/19 04:46:18;;;;;;;12.45;1.50;;;28.10;14.50;;;;;;5035040;28;20499;-65
2022/06/19 04:48:46;;;;;;;9.40;1.33;;;28.10;14.40;;;;;;5035695;28;20475;-66
2022/06/19 04:51:13;;;;;;;8.05;1.70;;;28.10;14.40;;;;;;5032706;28;20077;-67
2022/06/19 04:53:39;;;;;;;8.60;1.85;;;28.00;14.60;;;;;;5017180;28;20080;-67
2022/06/19 04:56:11;;;;;;;13.52;2.35;;;28.00;14.60;;;;;;5014775;28;20230;-66
2022/06/19 04:58:38;;;;;;;14.02;1.98;;;27.90;14.80;;;;;;5020687;28;20077;-67
2022/06/19 05:01:12;;;;;;;10.82;1.58;;;27.90;14.70;;;;;;5027068;28;20069;-67
2022/06/19 05:03:39;;;;;;;15.50;2.28;;;27.80;14.70;;;;;;5037898;28;20513;-66
2022/06/19 05:06:06;;;;;;;12.00;2.10;;;27.80;14.70;;;;;;5016932;28;20070;-66
2022/06/19 05:08:33;;;;;;;17.33;2.65;;;27.80;14.70;;;;;;5030986;28;20078;-65
2022/06/19 05:10:59;;;;;;;20.17;2.08;;;27.70;14.50;;;;;;5019526;28;20073;-65
2022/06/19 05:13:26;;;;;;;12.63;2.30;;;27.60;14.50;;;;;;5015014;28;20163;-66
2022/06/19 05:16:05;;;;;;;22.70;2.92;;;27.60;14.50;;;;;;5032017;28;20089;-65
2022/06/19 05:18:34;;;;;;;18.23;2.45;;;27.50;14.60;;;;;;5019833;28;20073;-65
2022/06/19 05:21:02;;;;;;;20.13;2.80;;;27.40;14.50;;;;;;5030636;28;20099;-65
2022/06/19 05:26:08;;;;;;;20.70;2.30;;;27.40;14.50;;;;;;3045415;26;20122;-66
2022/06/19 05:28:35;;;;;;;12.93;2.22;;;27.40;14.30;;;;;;4974790;28;20129;-65
2022/06/19 05:31:02;;;;;;;14.57;2.13;;;27.40;14.50;;;;;;4974612;28;20109;-66
2022/06/19 05:33:30;;;;;;;14.00;2.00;;;27.40;14.70;;;;;;4975157;28;20082;-65
2022/06/19 05:35:57;;;;;;;11.40;2.50;;;27.40;14.90;;;;;;4995969;28;20085;-65
2022/06/19 05:38:24;;;;;;;23.40;2.38;;;27.30;15.20;;;;;;4991769;28;20117;-66
2022/06/19 05:40:52;;;;;;;8.63;1.60;;;27.30;15.50;;;;;;4989912;28;20070;-65
2022/06/19 05:43:20;;;;;;;12.57;1.70;;;27.30;15.80;;;;;;4989932;28;20077;-66
2022/06/19 05:45:56;;;;;;;10.77;1.98;;;27.20;15.90;;;;;;5005129;28;20098;-68
2022/06/19 05:48:23;;;;;;;9.88;1.73;;;27.30;16.30;;;;;;4988982;28;20085;-66
2022/06/19 05:51:04;;;;;;;8.32;1.70;;;27.20;16.40;;;;;;5005166;28;20090;-65
2022/06/19 05:53:36;;;;;;;10.98;3.60;;;27.30;16.70;;;;;;4991878;28;20090;-69
2022/06/19 05:56:03;;;;;;;9.60;2.90;;;27.20;17.10;;;;;;4992713;28;20114;-66
2022/06/19 05:58:30;;;;;;;14.32;2.47;;;27.20;17.40;;;;;;4988659;28;20088;-67
2022/06/19 06:00:57;;;;;;;13.90;2.25;;;27.10;17.70;;;;;;4988679;28;20155;-68
2022/06/19 06:03:24;;;;;;;15.30;2.60;;;27.00;17.90;;;;;;4990248;28;20593;-71
2022/06/19 06:05:51;;;;;;;15.75;2.88;;;26.90;18.20;;;;;;4989211;28;20081;-65
2022/06/19 06:08:19;;;;;;;11.18;2.22;;;26.90;18.40;;;;;;4989683;28;20100;-68
2022/06/19 06:10:47;;;;;;;16.33;2.42;;;26.90;18.70;;;;;;4992339;28;20165;-66
2022/06/19 06:13:14;;;;;;;15.82;2.28;;;26.80;19.00;;;;;;4991074;28;20141;-67
2022/06/19 06:15:40;;;;;;;10.45;2.40;;;26.80;19.40;;;;;;4989209;28;20124;-69
2022/06/19 06:18:07;;;;;;;15.65;2.33;;;26.70;19.70;;;;;;4989778;28;20169;-66
2022/06/19 06:20:35;;;;;;;10.25;2.00;;;26.50;19.90;;;;;;4989341;28;20172;-67
2022/06/19 06:23:02;;;;;;;12.25;2.00;;;26.50;19.60;;;;;;4988207;28;20101;-66
2022/06/19 06:25:28;;;;;;;64.07;36.17;;;26.40;19.70;;;;;;4973292;28;20120;-64
2022/06/19 06:27:54;;;;;;;25.02;15.55;;;26.40;19.50;;;;;;4987331;28;20080;-65
2022/06/19 06:30:21;;;;;;;10.52;2.55;;;26.30;19.40;;;;;;4989537;28;20077;-68
2022/06/19 06:32:47;;;;;;;10.93;2.78;;;26.20;19.20;;;;;;4988564;28;20083;-66
2022/06/19 06:35:14;;;;;;;8.50;3.70;;;26.10;19.30;;;;;;4990528;28;20093;-65
2022/06/19 06:37:40;;;;;;;9.35;1.98;;;26.20;19.20;;;;;;4990786;28;20074;-66
2022/06/19 06:40:08;;;;;;;11.52;2.03;;;26.10;18.80;;;;;;4987542;28;20500;-66
2022/06/19 06:42:35;;;;;;;7.95;1.70;;;26.10;18.30;;;;;;4975412;28;20074;-64
2022/06/19 06:45:03;;;;;;;7.45;1.40;;;26.10;17.90;;;;;;4989786;28;20070;-65
2022/06/19 06:47:29;;;;;;;7.72;1.88;;;26.10;17.30;;;;;;4991095;28;20100;-64
2022/06/19 06:49:55;;;;;;;9.30;1.80;;;26.10;16.50;;;;;;4991223;28;20076;-66
2022/06/19 06:52:22;;;;;;;9.85;1.45;;;26.20;16.10;;;;;;4990454;28;20531;-65
2022/06/19 06:54:48;;;;;;;8.00;1.40;;;26.30;15.50;;;;;;4990968;28;20547;-66
2022/06/19 06:57:15;;;;;;;10.40;1.50;;;26.30;15.30;;;;;;4990012;28;20104;-64
2022/06/19 06:59:41;;;;;;;10.73;1.33;;;26.40;15.20;;;;;;4970404;28;20066;-65
2022/06/19 07:02:07;;;;;;;7.20;1.38;;;26.50;15.40;;;;;;4988111;28;20077;-65
2022/06/19 07:04:34;;;;;;;5.28;1.85;;;26.40;15.90;;;;;;4988418;28;20066;-64
2022/06/19 07:07:00;;;;;;;5.20;1.75;;;26.30;15.70;;;;;;4994119;28;20176;-67
2022/06/19 07:09:26;;;;;;;7.60;1.65;;;26.40;15.90;;;;;;4977868;28;20069;-65
2022/06/19 07:11:53;;;;;;;3.58;0.98;;;26.30;15.50;;;;;;4991782;28;20101;-66
2022/06/19 07:14:19;;;;;;;7.70;1.25;;;26.30;15.60;;;;;;5001865;28;20074;-66
2022/06/19 07:16:46;;;;;;;2.78;1.00;;;26.30;15.50;;;;;;4990373;28;20082;-65
2022/06/19 07:19:12;;;;;;;5.57;1.20;;;26.10;15.70;;;;;;4987512;28;20436;-68
2022/06/19 07:21:39;;;;;;;5.18;1.75;;;26.10;15.10;;;;;;4987919;28;20475;-66
2022/06/19 07:24:06;;;;;;;6.63;1.50;;;26.00;14.80;;;;;;4991325;28;20584;-66
2022/06/19 07:26:32;;;;;;;5.55;1.23;;;26.00;14.60;;;;;;4980481;28;20167;-65
2022/06/19 07:28:59;;;;;;;6.95;1.48;;;26.00;14.20;;;;;;4975622;28;20113;-68
2022/06/19 07:31:25;;;;;;;9.30;1.90;;;26.00;13.80;;;;;;4990035;28;20208;-66
2022/06/19 07:33:52;;;;;;;6.53;1.27;;;26.00;13.60;;;;;;4988844;28;20097;-65
2022/06/19 07:36:21;;;;;;;9.52;1.90;;;26.00;13.60;;;;;;4988190;28;20097;-65
2022/06/19 07:38:48;;;;;;;4.93;1.25;;;26.10;13.70;;;;;;4991711;28;20221;-64
2022/06/19 07:41:14;;;;;;;3.15;0.85;;;26.00;13.60;;;;;;4988129;28;20070;-66
2022/06/19 07:43:43;;;;;;;9.77;1.23;;;26.00;13.90;;;;;;4997295;28;20161;-66
2022/06/19 07:46:10;;;;;;;7.28;1.10;;;26.00;13.30;;;;;;4979847;28;20082;-66
2022/06/19 07:51:21;;;;;;;3.05;0.70;;;25.90;13.30;;;;;;4994380;28;20181;-66
2022/06/19 07:53:47;;;;;;;6.10;1.08;;;25.90;13.40;;;;;;4993040;28;20096;-66
2022/06/19 07:56:14;;;;;;;4.00;1.10;;;25.80;13.30;;;;;;4991670;28;20143;-65
2022/06/19 07:58:40;;;;;;;4.40;1.10;;;25.80;13.80;;;;;;4993016;28;21057;-68
2022/06/19 08:01:07;;;;;;;5.90;0.98;;;25.70;14.50;;;;;;4989408;28;20520;-65
2022/06/19 08:03:33;;;;;;;7.68;1.00;;;25.70;14.30;;;;;;4992631;28;20097;-67
2022/06/19 08:05:59;;;;;;;3.47;1.02;;;25.70;14.50;;;;;;4994517;28;20069;-65
2022/06/19 08:08:28;;;;;;;5.03;1.17;;;25.70;14.70;;;;;;4994895;28;20089;-65
2022/06/19 08:10:56;;;;;;;6.47;1.48;;;25.60;14.70;;;;;;4993449;28;20078;-65
2022/06/19 08:13:26;;;;;;;5.93;1.17;;;25.60;14.90;;;;;;4991882;28;20073;-68
2022/06/19 08:15:55;;;;;;;3.58;1.23;;;25.60;15.00;;;;;;4991376;28;20444;-65
2022/06/19 08:18:22;;;;;;;3.25;1.13;;;25.60;15.20;;;;;;4997773;28;20119;-67
2022/06/19 08:20:48;;;;;;;3.22;1.17;;;25.50;15.10;;;;;;4999852;28;20079;-68
2022/06/19 08:23:15;;;;;;;4.10;1.13;;;25.40;14.40;;;;;;4991514;28;20127;-66
2022/06/19 08:25:42;;;;;;;2.05;0.93;;;25.40;14.10;;;;;;4998057;28;20126;-66
2022/06/19 08:28:08;;;;;;;1.65;0.73;;;25.40;14.10;;;;;;4974534;28;20089;-66
2022/06/19 08:30:40;;;;;;;3.50;1.10;;;25.40;13.70;;;;;;4994884;28;20123;-66
2022/06/19 08:33:07;;;;;;;4.05;0.82;;;25.40;13.50;;;;;;4993525;28;20085;-66
2022/06/19 08:35:47;;;;;;;10.40;1.10;;;25.40;13.30;;;;;;4990600;28;20093;-66
2022/06/19 08:38:19;;;;;;;5.30;0.90;;;25.40;13.40;;;;;;4990818;28;20090;-66
2022/06/19 08:40:58;;;;;;;7.15;1.10;;;25.40;13.30;;;;;;5001546;28;20065;-66
2022/06/19 08:44:09;;;;;;;5.38;1.10;;;25.40;13.50;;;;;;4990320;28;20525;-65
2022/06/19 08:47:16;;;;;;;7.72;1.15;;;25.40;13.80;;;;;;4990258;28;20073;-66
2022/06/19 08:49:43;;;;;;;4.20;1.13;;;25.30;13.80;;;;;;4992714;28;20160;-65
2022/06/19 08:52:37;;;;;;;6.03;1.00;;;25.20;14.20;;;;;;4991919;28;20078;-65
2022/06/19 08:55:22;;;;;;;10.75;1.30;;;25.10;14.40;;;;;;5005923;28;20574;-65
2022/06/19 08:58:10;;;;;;;3.20;1.08;;;25.10;15.20;;;;;;4992277;28;20073;-65
2022/06/19 09:00:54;;;;;;;4.57;1.20;;;25.10;15.70;;;;;;4989797;28;20121;-65
2022/06/19 09:06:58;;;;;;;11.75;2.05;;;24.80;16.70;;;;;;4992422;28;20085;-66
2022/06/19 09:09:46;;;;;;;11.88;2.00;;;24.60;17.10;;;;;;4991327;28;20140;-65
2022/06/19 09:12:30;;;;;;;15.23;1.92;;;24.40;17.10;;;;;;4990759;28;20447;-65
2022/06/19 09:15:26;;;;;;;4.95;1.38;;;24.30;17.20;;;;;;4993526;28;20081;-66
2022/06/19 09:18:03;;;;;;;8.07;1.70;;;24.20;17.40;;;;;;4985296;28;20085;-64
2022/06/19 09:20:33;;;;;;;8.30;1.67;;;24.10;17.70;;;;;;4981103;28;20169;-65
2022/06/19 09:23:27;;;;;;;7.68;1.90;;;24.10;17.70;;;;;;4990204;28;20124;-64
2022/06/19 09:26:08;;;;;;;9.63;1.80;;;24.10;17.50;;;;;;4991514;28;20136;-64
2022/06/19 09:28:45;;;;;;;9.00;1.50;;;24.10;17.90;;;;;;4993373;28;20066;-68
2022/06/19 09:31:22;;;;;;;8.18;1.80;;;24.00;18.20;;;;;;4993027;28;20181;-66
2022/06/19 09:34:03;;;;;;;3.75;1.52;;;24.00;18.20;;;;;;4990264;28;20082;-65
2022/06/19 09:36:49;;;;;;;6.07;1.40;;;24.00;17.90;;;;;;4990230;28;20094;-64
2022/06/19 09:39:29;;;;;;;8.20;1.30;;;24.10;17.70;;;;;;4992857;28;20069;-63
2022/06/19 09:42:10;;;;;;;6.72;1.33;;;24.30;17.70;;;;;;4978555;28;20115;-64
2022/06/19 09:44:45;;;;;;;7.72;1.30;;;24.40;18.10;;;;;;4992953;28;20077;-66
2022/06/19 09:47:18;;;;;;;8.80;1.50;;;24.40;17.20;;;;;;4990240;28;20416;-64
2022/06/19 09:50:02;;;;;;;8.32;1.52;;;24.40;16.90;;;;;;4988483;28;20440;-64
2022/06/19 09:53:02;;;;;;;10.10;1.50;;;24.50;17.50;;;;;;4990386;28;20074;-64
2022/06/19 09:55:36;;;;;;;7.00;1.52;;;24.50;16.90;;;;;;4976941;28;20081;-63
2022/06/19 09:58:06;;;;;;;8.25;1.35;;;24.50;16.40;;;;;;4987249;28;20187;-64
2022/06/19 10:00:35;;;;;;;8.68;1.50;;;24.60;16.40;;;;;;4991121;28;20162;-64
2022/06/19 10:03:15;;;;;;;10.00;1.98;;;24.70;15.90;;;;;;4986879;28;20120;-64
2022/06/19 10:05:44;;;;;;;3.70;1.30;;;24.70;15.70;;;;;;4989032;28;20077;-64
2022/06/19 10:08:24;;;;;;;8.95;1.50;;;24.70;15.70;;;;;;4988998;28;20197;-61
2022/06/19 10:11:06;;;;;;;13.95;1.40;;;24.70;15.50;;;;;;4990063;28;20069;-64
2022/06/19 10:14:03;;;;;;;5.60;1.20;;;24.70;15.60;;;;;;4991191;28;20070;-63
2022/06/19 10:16:38;;;;;;;5.78;1.25;;;24.70;15.80;;;;;;4991330;28;20125;-63
2022/06/19 10:19:19;;;;;;;6.78;1.33;;;24.70;15.40;;;;;;5003894;28;20077;-62
2022/06/19 10:22:16;;;;;;;3.92;1.17;;;24.70;15.40;;;;;;5000212;28;20094;-65
2022/06/19 10:25:04;;;;;;;7.38;1.48;;;24.70;15.40;;;;;;5002458;28;20547;-62
2022/06/19 10:27:52;;;;;;;7.03;1.30;;;24.70;15.10;;;;;;4991982;28;20093;-65
2022/06/19 10:30:26;;;;;;;9.55;1.55;;;24.70;15.00;;;;;;4987766;28;20534;-64
2022/06/19 10:33:14;;;;;;;4.45;1.17;;;24.70;15.40;;;;;;4987587;28;20088;-63
2022/06/19 10:36:15;;;;;;;6.32;1.48;;;24.60;15.60;;;;;;5003633;28;20093;-63
2022/06/19 10:38:49;;;;;;;10.05;1.45;;;24.60;15.90;;;;;;4994091;28;20077;-63
2022/06/19 10:42:01;;;;;;;6.65;1.60;;;24.50;16.00;;;;;;4992885;28;20475;-63
2022/06/19 10:44:33;;;;;;;9.93;1.30;;;24.50;16.10;;;;;;4993810;28;20540;-64
2022/06/19 10:47:26;;;;;;;5.85;1.10;;;24.50;16.70;;;;;;4991444;28;20539;-62
2022/06/19 10:50:24;;;;;;;6.38;1.27;;;24.40;16.20;;;;;;4987909;28;20073;-62
2022/06/19 10:53:00;;;;;;;12.18;1.67;;;24.40;16.50;;;;;;4988453;28;20101;-63
2022/06/19 10:55:29;;;;;;;3.20;1.35;;;24.40;16.20;;;;;;4996677;28;20172;-65
2022/06/19 10:58:23;;;;;;;7.22;1.30;;;24.30;16.00;;;;;;4988355;28;20105;-63
2022/06/19 11:01:02;;;;;;;6.18;1.38;;;24.20;16.00;;;;;;4973719;28;20086;-64
2022/06/19 11:06:34;;;;;;;4.93;1.42;;;24.10;15.90;;;;;;4989877;28;20120;-63
2022/06/19 11:09:14;;;;;;;9.60;1.23;;;24.10;16.20;;;;;;4973049;28;20532;-63
2022/06/19 11:11:43;;;;;;;4.07;1.10;;;24.00;16.30;;;;;;4973283;28;20073;-63
2022/06/19 11:14:43;;;;;;;7.32;1.50;;;23.90;16.70;;;;;;4971889;28;20092;-63
2022/06/19 11:17:29;;;;;;;6.47;1.48;;;23.90;16.50;;;;;;4987882;28;20555;-64
2022/06/19 11:19:56;;;;;;;3.90;0.93;;;23.90;16.30;;;;;;4998213;28;20160;-64
2022/06/19 11:22:25;;;;;;;8.88;1.40;;;23.90;16.40;;;;;;4997241;28;20088;-65
2022/06/19 11:24:53;;;;;;;10.80;1.40;;;23.80;16.00;;;;;;5009621;28;20544;-64
2022/06/19 11:27:29;;;;;;;5.97;1.48;;;23.90;16.10;;;;;;4979865;28;20135;-64
2022/06/19 11:29:58;;;;;;;2.50;0.85;;;23.80;16.20;;;;;;4993431;28;20583;-65
2022/06/19 11:32:29;;;;;;;10.65;1.67;;;23.80;16.40;;;;;;4992122;28;20097;-64
2022/06/19 11:35:05;;;;;;;7.68;1.42;;;23.70;16.50;;;;;;4978757;28;20109;-64
2022/06/19 11:37:55;;;;;;;12.25;1.35;;;23.70;16.60;;;;;;4994147;28;20145;-63
2022/06/19 11:40:45;;;;;;;8.10;1.27;;;23.60;16.70;;;;;;4994717;28;20065;-64
2022/06/19 11:43:32;;;;;;;10.15;2.15;;;23.60;16.90;;;;;;4999335;28;20520;-62
2022/06/19 11:46:15;;;;;;;10.80;1.40;;;23.50;17.10;;;;;;4980574;28;20100;-64
2022/06/19 11:48:41;;;;;;;8.30;1.38;;;23.40;17.10;;;;;;4996477;28;20081;-64
2022/06/19 11:51:21;;;;;;;8.07;1.42;;;23.40;17.10;;;;;;4994471;28;20164;-63
2022/06/19 11:53:54;;;;;;;4.45;1.33;;;23.30;17.00;;;;;;4999055;28;20070;-63
2022/06/19 11:56:33;;;;;;;16.17;1.40;;;23.30;16.70;;;;;;4999247;28;20458;-63
2022/06/19 11:59:05;;;;;;;5.25;1.10;;;23.30;16.60;;;;;;4997310;28;20066;-63
2022/06/19 12:01:44;;;;;;;7.88;1.58;;;23.40;16.50;;;;;;4994292;28;20120;-64
2022/06/19 12:04:34;;;;;;;5.07;1.27;;;23.40;16.90;;;;;;4992134;28;20084;-66
2022/06/19 12:07:12;;;;;;;7.38;1.10;;;23.40;16.80;;;;;;4978498;28;20082;-64
2022/06/19 12:09:45;;;;;;;7.47;1.50;;;23.40;17.10;;;;;;5010967;28;20073;-64
2022/06/19 12:12:11;;;;;;;5.28;1.15;;;23.30;16.60;;;;;;4994306;28;20078;-64
2022/06/19 12:14:46;;;;;;;6.65;1.48;;;23.30;16.80;;;;;;4996627;28;20424;-66
2022/06/19 12:17:13;;;;;;;8.15;1.48;;;23.30;17.10;;;;;;4995160;28;20097;-64
2022/06/19 12:19:49;;;;;;;7.28;1.33;;;23.40;17.40;;;;;;4993806;28;20066;-64
2022/06/19 12:22:17;;;;;;;2.87;0.90;;;23.30;17.10;;;;;;4977782;28;20127;-64
2022/06/19 12:24:57;;;;;;;7.32;1.52;;;23.30;17.20;;;;;;5000442;28;20073;-65
2022/06/19 12:27:30;;;;;;;8.10;1.35;;;23.20;17.10;;;;;;5001938;28;20084;-64
2022/06/19 12:30:00;;;;;;;10.68;1.60;;;23.20;16.90;;;;;;4994880;28;20231;-65
2022/06/19 12:32:31;;;;;;;6.72;1.25;;;23.10;17.50;;;;;;4993219;28;20455;-66
2022/06/19 12:35:02;;;;;;;7.55;1.73;;;23.10;17.50;;;;;;4990466;28;20171;-65
2022/06/19 12:37:31;;;;;;;5.05;1.50;;;23.20;17.30;;;;;;4997401;28;20097;-64
2022/06/19 12:39:58;;;;;;;12.10;1.30;;;23.10;17.70;;;;;;4977352;28;20221;-69
2022/06/19 12:42:35;;;;;;;6.90;1.55;;;23.10;17.70;;;;;;5006574;28;20128;-63
2022/06/19 12:45:04;;;;;;;6.13;1.10;;;23.00;17.80;;;;;;4993905;28;20069;-64
2022/06/19 12:47:40;;;;;;;5.97;1.10;;;22.90;17.50;;;;;;4992153;28;20172;-65
2022/06/19 12:50:38;;;;;;;7.95;1.10;;;22.90;17.70;;;;;;4975656;28;20552;-65
2022/06/19 12:53:13;;;;;;;;;;;23.00;17.40;;;;;;4992391;28;20081;-66
2022/06/19 12:56:23;;;;;;;6.18;1.30;;;22.90;17.60;;;;;;4993767;28;19956;-65
2022/06/19 12:59:05;;;;;;;7.13;1.00;;;22.90;17.60;;;;;;4989213;28;20124;-65
2022/06/19 13:02:07;;;;;;;5.35;0.98;;;22.90;18.10;;;;;;4992674;28;20077;-63
2022/06/19 13:04:58;;;;;;;5.60;1.20;;;22.80;18.10;;;;;;4975259;28;20081;-64
2022/06/19 13:07:33;;;;;;;7.13;1.30;;;22.80;18.60;;;;;;4992756;28;20074;-65
2022/06/19 13:10:23;;;;;;;5.45;1.10;;;22.70;19.00;;;;;;4990678;28;20070;-66
2022/06/19 13:13:15;;;;;;;3.97;1.05;;;22.70;18.70;;;;;;4991081;28;20081;-64
2022/06/19 13:16:02;;;;;;;8.60;1.20;;;22.70;18.80;;;;;;4990487;28;20077;-65
2022/06/19 13:18:48;;;;;;;5.10;1.20;;;22.70;18.80;;;;;;4992818;28;20662;-64
2022/06/19 13:21:39;;;;;;;4.43;1.00;;;22.70;18.80;;;;;;4991681;28;20168;-63
2022/06/19 13:24:23;;;;;;;7.07;1.02;;;22.80;19.30;;;;;;4998228;28;20117;-63